Time;durP1;ratioP1;P1;durP2;ratioP2;P2;SDS_P1;SDS_P2;PMS_P1;PMS_P2;Temp;Humidity;BMP_temperature;BMP_pressure;BME280_temperature;BME280_humidity;BME280_pressure;Samples;Min_cycle;Max_cycle;Signal;HPM_P1;HPM_P2
2022/08/17 00:01:00;;;;;;;;;14.50;11.25;;;;;20.10;80.10;100032.13;4983410;28;46104;-74
2022/08/17 00:03:31;;;;;;;;;16.25;12.25;;;;;20.10;80.09;100032.13;4996067;28;45498;-74
2022/08/17 00:06:15;;;;;;;;;20.75;14.25;;;;;20.10;79.83;100026.75;5010814;28;45385;-74
2022/08/17 00:08:52;;;;;;;;;8.75;8.25;;;;;20.11;80.19;100023.97;4978575;28;45333;-73
2022/08/17 00:11:20;;;;;;;;;12.75;11.25;;;;;20.10;80.32;100018.72;4976705;28;45639;-74
2022/08/17 00:13:54;;;;;;;;;16.25;12.00;;;;;20.10;80.07;100021.41;4976416;28;45699;-74
2022/08/17 00:16:32;;;;;;;;;14.00;11.00;;;;;20.08;80.24;100018.81;4975647;28;45594;-74
2022/08/17 00:19:00;;;;;;;;;17.50;16.00;;;;;20.03;80.56;100011.09;4973930;28;45571;-74
2022/08/17 00:21:26;;;;;;;;;17.25;16.50;;;;;20.08;80.70;100009.94;4976203;28;46272;-74
2022/08/17 00:23:51;;;;;;;;;13.25;13.25;;;;;20.06;80.49;100016.25;4975826;28;45404;-73
2022/08/17 00:26:19;;;;;;;;;18.00;16.75;;;;;20.06;80.75;100013.56;4990233;28;45380;-74
2022/08/17 00:28:44;;;;;;;;;14.75;14.75;;;;;20.05;80.41;100017.19;4974770;28;45423;-74
2022/08/17 00:31:11;;;;;;;;;12.50;11.00;;;;;20.04;80.38;100012.81;4981037;28;46522;-74
2022/08/17 00:33:39;;;;;;;;;18.00;17.00;;;;;20.04;80.43;100017.31;4978686;28;45458;-74
2022/08/17 00:36:06;;;;;;;;;10.25;9.25;;;;;20.03;80.46;100016.47;4975684;28;45391;-73
2022/08/17 00:38:33;;;;;;;;;16.00;16.00;;;;;20.05;79.87;100009.16;4976186;28;45589;-74
2022/08/17 00:41:05;;;;;;;;;14.00;13.75;;;;;20.04;80.42;100007.47;4975416;28;45577;-73
2022/08/17 00:43:39;;;;;;;;;12.50;11.50;;;;;20.03;80.06;100005.72;4974583;28;45750;-73
2022/08/17 00:46:15;;;;;;;;;15.50;14.00;;;;;20.03;80.72;100004.88;4976399;28;45457;-73
2022/08/17 00:48:42;;;;;;;;;21.00;17.50;;;;;19.91;80.79;99974.41;4956469;28;45330;-73
2022/08/17 00:51:17;;;;;;;;;16.50;12.00;;;;;20.01;80.87;99998.75;4973746;28;46270;-73
2022/08/17 00:53:55;;;;;;;;;16.25;12.00;;;;;19.94;81.10;99986.75;5007391;28;45427;-73
2022/08/17 00:56:27;;;;;;;;;15.00;14.00;;;;;20.01;80.86;99996.94;4973263;28;45451;-73
2022/08/17 00:58:53;;;;;;;;;12.00;10.25;;;;;20.02;81.42;100001.31;4975362;28;45352;-74
2022/08/17 01:01:20;;;;;;;;;17.25;14.75;;;;;20.00;81.05;99997.03;4987560;28;47461;-73
2022/08/17 01:03:45;;;;;;;;;16.75;15.50;;;;;19.95;80.98;99997.38;4956017;28;45533;-73
2022/08/17 01:06:11;;;;;;;;;14.75;13.00;;;;;20.02;81.22;100014.72;4955858;28;45424;-74
2022/08/17 01:08:37;;;;;;;;;15.75;13.00;;;;;20.03;80.88;100016.47;4974701;28;45467;-73
2022/08/17 01:11:04;;;;;;;;;15.75;12.50;;;;;20.03;80.74;100013.78;4975242;28;46066;-73
2022/08/17 01:13:35;;;;;;;;;18.50;18.00;;;;;19.99;80.81;99996.16;4984142;28;45358;-73
2022/08/17 01:16:08;;;;;;;;;15.25;15.00;;;;;20.02;80.45;100004.00;4995242;28;45557;-73
2022/08/17 01:18:34;;;;;;;;;14.50;12.00;;;;;20.03;80.95;100011.09;4975817;28;45425;-74
2022/08/17 01:21:09;;;;;;;;;18.00;15.50;;;;;20.01;80.73;100010.34;4979847;28;45555;-73
2022/08/17 01:23:35;;;;;;;;;13.75;12.50;;;;;19.98;80.85;100007.88;5010529;28;45682;-73
2022/08/17 01:26:01;;;;;;;;;12.50;12.25;;;;;20.01;80.52;100009.47;4992937;28;45669;-73
2022/08/17 01:28:32;;;;;;;;;14.25;13.50;;;;;19.97;80.63;100003.47;4976979;28;45523;-74
2022/08/17 01:31:00;;;;;;;;;16.75;15.75;;;;;19.93;81.12;100003.78;4975548;28;45481;-73
2022/08/17 01:33:26;;;;;;;;;12.50;12.50;;;;;19.93;81.11;100010.00;4974086;28;45460;-73
2022/08/17 01:35:51;;;;;;;;;14.75;14.75;;;;;19.94;81.26;100011.72;4974480;28;45493;-73
2022/08/17 01:38:17;;;;;;;;;22.25;17.75;;;;;19.91;81.21;100016.44;4975171;28;45384;-73
2022/08/17 01:40:50;;;;;;;;;15.25;13.75;;;;;19.86;81.45;100009.56;4974665;28;45964;-74
2022/08/17 01:43:21;;;;;;;;;12.75;12.75;;;;;19.85;81.32;100005.16;4975355;28;45388;-72
2022/08/17 01:45:50;;;;;;;;;16.00;14.00;;;;;19.82;81.44;100012.56;4975016;28;45523;-72
2022/08/17 01:48:18;;;;;;;;;13.75;11.25;;;;;19.79;81.78;100007.41;4973343;28;45403;-73
2022/08/17 01:50:45;;;;;;;;;16.50;14.25;;;;;19.79;81.73;100008.25;4974736;28;45567;-74
2022/08/17 01:53:27;;;;;;;;;17.00;17.00;;;;;19.76;82.06;100002.22;4974733;28;45404;-73
2022/08/17 01:55:57;;;;;;;;;18.00;16.00;;;;;19.75;82.12;100000.50;4974480;28;45470;-73
2022/08/17 01:58:23;;;;;;;;;17.50;13.00;;;;;19.73;82.08;100013.16;4974112;28;45264;-73
2022/08/17 02:00:51;;;;;;;;;17.00;13.00;;;;;19.69;82.26;100018.72;4978069;28;47630;-73
2022/08/17 02:03:18;;;;;;;;;15.50;14.75;;;;;19.69;82.50;100023.19;4994292;28;45386;-74
2022/08/17 02:05:45;;;;;;;;;14.50;13.50;;;;;19.61;82.64;100013.00;4994317;28;45427;-75
2022/08/17 02:08:11;;;;;;;;;14.50;13.50;;;;;19.65;82.70;100022.56;4975857;28;45406;-73
2022/08/17 02:10:36;;;;;;;;;16.75;15.50;;;;;19.64;83.17;100026.19;4957865;28;46231;-74
2022/08/17 02:13:03;;;;;;;;;16.50;14.25;;;;;19.65;82.65;100033.28;4974662;28;45407;-73
2022/08/17 02:15:28;;;;;;;;;18.50;18.50;;;;;19.60;82.91;100032.72;4974532;28;45400;-73
2022/08/17 02:17:54;;;;;;;;;12.75;11.25;;;;;19.59;82.85;100035.50;4973795;28;45392;-74
2022/08/17 02:20:19;;;;;;;;;13.00;13.00;;;;;19.60;82.88;100030.06;4973649;28;46213;-74
2022/08/17 02:22:46;;;;;;;;;20.00;19.75;;;;;19.60;82.62;100024.69;4974666;28;45514;-73
2022/08/17 02:25:15;;;;;;;;;15.00;14.25;;;;;19.60;82.44;100024.69;4974315;28;45444;-73
2022/08/17 02:27:41;;;;;;;;;12.00;11.00;;;;;19.59;82.14;100020.28;4973835;28;45482;-74
2022/08/17 02:30:09;;;;;;;;;15.00;12.00;;;;;19.59;82.47;100017.59;4980534;28;47115;-74
2022/08/17 02:32:35;;;;;;;;;15.75;13.50;;;;;19.58;82.20;100015.88;4993558;28;45512;-73
2022/08/17 02:35:01;;;;;;;;;17.25;14.50;;;;;19.44;81.70;100005.22;4992622;28;45598;-74
2022/08/17 02:37:28;;;;;;;;;16.75;16.00;;;;;19.59;81.96;100027.47;4986763;28;45473;-73
2022/08/17 02:39:55;;;;;;;;;14.25;13.75;;;;;19.59;81.22;100032.84;4973710;28;46073;-73
2022/08/17 02:42:30;;;;;;;;;12.25;12.25;;;;;19.57;81.36;100051.69;4974324;28;45410;-73
2022/08/17 02:44:56;;;;;;;;;15.75;14.50;;;;;19.39;80.93;100008.22;4974179;28;45336;-74
2022/08/17 02:47:21;;;;;;;;;17.00;14.25;;;;;19.54;81.10;100041.19;4973055;28;45339;-73
2022/08/17 02:49:46;;;;;;;;;15.50;14.75;;;;;19.48;80.98;100025.47;4974503;28;45361;-73
2022/08/17 02:52:12;;;;;;;;;13.75;12.25;;;;;19.47;81.12;100035.34;4988363;28;45526;-74
2022/08/17 02:54:37;;;;;;;;;15.75;12.00;;;;;19.51;80.88;100031.50;4993550;28;45343;-73
2022/08/17 02:57:03;;;;;;;;;17.25;14.25;;;;;19.53;80.87;100031.41;4990065;28;45561;-73
2022/08/17 02:59:29;;;;;;;;;15.00;13.00;;;;;19.50;80.89;100031.63;4974801;28;46112;-72
2022/08/17 03:01:55;;;;;;;;;14.75;14.75;;;;;19.49;81.16;100032.56;4977571;28;45807;-72
2022/08/17 03:04:20;;;;;;;;;13.25;12.00;;;;;19.48;80.71;100020.13;4977182;28;45443;-74
2022/08/17 03:06:46;;;;;;;;;14.75;13.75;;;;;19.47;80.83;100002.34;4978158;28;45443;-73
2022/08/17 03:09:12;;;;;;;;;18.25;16.00;;;;;19.51;80.44;100019.91;4975137;28;47274;-73
2022/08/17 03:11:37;;;;;;;;;16.50;13.50;;;;;19.50;80.76;100007.50;4977544;28;45397;-73
2022/08/17 03:14:03;;;;;;;;;16.75;14.25;;;;;19.50;80.49;100012.84;4977787;28;45411;-73
2022/08/17 03:16:28;;;;;;;;;18.50;16.25;;;;;19.46;80.80;100005.97;4977000;28;45572;-73
2022/08/17 03:18:53;;;;;;;;;15.25;15.00;;;;;19.46;80.57;100000.63;4976556;28;45493;-73
2022/08/17 03:21:19;;;;;;;;;18.00;16.00;;;;;19.50;80.40;100010.19;4982312;28;45436;-73
2022/08/17 03:23:44;;;;;;;;;14.50;14.00;;;;;19.49;81.00;100000.41;4995827;28;45465;-73
2022/08/17 03:26:10;;;;;;;;;19.50;15.00;;;;;19.51;81.19;99998.47;4996268;28;45459;-73
2022/08/17 03:28:37;;;;;;;;;17.25;15.50;;;;;19.49;81.43;99995.91;4981525;28;45926;-72
2022/08/17 03:31:03;;;;;;;;;17.25;11.75;;;;;19.49;81.51;99987.00;4979349;28;45490;-73
2022/08/17 03:33:29;;;;;;;;;15.00;15.00;;;;;19.48;81.35;99980.81;4996769;28;45395;-73
2022/08/17 03:35:55;;;;;;;;;17.00;16.00;;;;;19.47;81.31;99980.91;4997234;28;45379;-73
2022/08/17 03:38:20;;;;;;;;;17.50;16.75;;;;;19.40;81.17;99974.22;4984347;28;45451;-73
2022/08/17 03:40:47;;;;;;;;;14.00;12.50;;;;;19.43;81.68;99995.47;4976181;28;45398;-73
2022/08/17 03:43:13;;;;;;;;;18.75;16.75;;;;;19.43;81.85;99988.28;4996196;28;45410;-75
2022/08/17 03:56:44;;;;;;;;;19.75;19.75;;;;;19.43;82.50;99998.13;4996551;28;45411;-74
2022/08/17 03:59:15;;;;;;;;;18.25;17.75;;;;;19.44;82.60;100000.72;4976710;28;46650;-73
2022/08/17 04:01:43;;;;;;;;;18.75;15.75;;;;;19.47;82.43;100013.06;4993879;28;45457;-72
2022/08/17 04:04:09;;;;;;;;;17.25;14.75;;;;;19.49;82.43;100019.16;4996499;28;45533;-73
2022/08/17 04:06:35;;;;;;;;;20.50;19.25;;;;;19.46;82.08;100008.66;4996336;28;45614;-73
2022/08/17 04:09:01;;;;;;;;;20.00;17.75;;;;;19.48;82.16;100029.03;4978595;28;46206;-73
2022/08/17 04:11:26;;;;;;;;;19.00;16.75;;;;;19.48;81.96;100017.44;4977951;28;45398;-73
2022/08/17 04:13:52;;;;;;;;;20.50;20.50;;;;;19.52;81.71;100027.88;4996246;28;45475;-74
2022/08/17 04:16:17;;;;;;;;;13.25;11.25;;;;;19.51;81.39;100028.84;4995864;28;45439;-73
2022/08/17 04:18:42;;;;;;;;;17.50;16.75;;;;;19.50;81.36;100023.56;4982302;28;45817;-73
2022/08/17 04:21:08;;;;;;;;;18.00;17.25;;;;;19.51;81.00;100039.56;4976112;28;45374;-74
2022/08/17 04:23:35;;;;;;;;;21.25;19.25;;;;;19.51;81.28;100030.63;4976917;28;45498;-73
2022/08/17 04:26:01;;;;;;;;;17.00;16.00;;;;;19.54;80.88;100038.50;4975427;28;45402;-73
2022/08/17 04:28:26;;;;;;;;;16.25;16.00;;;;;19.57;81.08;100034.72;4975339;28;46354;-74
2022/08/17 04:30:52;;;;;;;;;18.00;17.50;;;;;19.54;80.39;100038.50;4975535;28;45402;-74
2022/08/17 04:33:22;;;;;;;;;20.00;18.00;;;;;19.56;80.33;100039.25;4976623;28;45388;-73
2022/08/17 04:35:51;;;;;;;;;19.00;19.00;;;;;19.56;80.13;100036.56;4975051;28;45430;-74
2022/08/17 04:38:23;;;;;;;;;22.25;21.00;;;;;19.54;79.89;100025.09;4975715;28;46159;-73
2022/08/17 04:43:36;;;;;;;;;19.50;18.25;;;;;19.51;79.72;100027.94;4994630;28;45470;-73
2022/08/17 04:46:05;;;;;;;;;20.25;18.50;;;;;19.54;80.06;100038.50;5010892;28;45352;-73
2022/08/17 04:48:34;;;;;;;;;21.25;19.00;;;;;19.52;79.89;100035.03;4984225;28;46229;-74
2022/08/17 04:51:00;;;;;;;;;24.50;24.25;;;;;19.48;80.15;100031.72;4975798;28;45568;-73
2022/08/17 04:53:26;;;;;;;;;21.00;21.00;;;;;19.50;80.72;100027.09;4993985;28;45438;-73
2022/08/17 04:55:52;;;;;;;;;17.75;16.25;;;;;19.51;80.42;100017.22;4994992;28;45569;-73
2022/08/17 04:58:18;;;;;;;;;22.25;20.75;;;;;19.52;80.49;100005.56;4986692;28;45509;-74
2022/08/17 05:00:44;;;;;;;;;24.00;21.00;;;;;19.53;80.62;100008.16;4975795;28;45681;-74
2022/08/17 05:03:09;;;;;;;;;20.00;20.00;;;;;19.52;80.77;100000.22;4990775;28;45382;-74
2022/08/17 05:05:37;;;;;;;;;19.25;17.00;;;;;19.54;80.60;100003.66;4995853;28;45580;-73
2022/08/17 05:08:05;;;;;;;;;20.50;19.00;;;;;19.52;80.79;99990.38;4989489;28;46096;-72
2022/08/17 05:10:32;;;;;;;;;15.50;14.50;;;;;19.56;80.60;99999.03;5006951;28;45399;-73
2022/08/17 05:13:06;;;;;;;;;19.75;17.75;;;;;19.57;80.50;99997.22;4988301;28;45427;-75
2022/08/17 05:15:32;;;;;;;;;25.25;24.25;;;;;19.60;79.67;100013.97;4994964;28;45438;-74
2022/08/17 05:17:58;;;;;;;;;17.75;17.00;;;;;19.65;79.85;100019.88;4990825;28;47689;-73
2022/08/17 05:20:24;;;;;;;;;25.75;20.50;;;;;19.74;79.60;100021.09;4956116;28;45491;-74
2022/08/17 05:22:58;;;;;;;;;22.00;20.50;;;;;19.83;79.13;100014.25;4979162;28;45388;-73
2022/08/17 05:25:27;;;;;;;;;22.50;22.25;;;;;20.03;78.22;100011.09;4995028;28;45342;-74
2022/08/17 05:27:54;;;;;;;;;22.00;21.00;;;;;20.44;76.71;100008.31;4991343;28;46785;-74
2022/08/17 05:30:20;;;;;;;;;18.75;17.75;;;;;20.65;75.51;100001.50;4975254;28;45606;-73
2022/08/17 05:32:59;;;;;;;;;20.50;18.25;;;;;20.66;75.03;99984.38;4986868;28;45546;-74
2022/08/17 05:35:27;;;;;;;;;19.75;17.25;;;;;20.64;75.09;99989.00;4995760;28;45314;-73
2022/08/17 05:37:53;;;;;;;;;22.00;17.25;;;;;20.57;75.61;99991.25;4980548;28;46067;-75
2022/08/17 05:40:20;;;;;;;;;14.75;14.00;;;;;20.56;75.60;99996.75;4974354;28;45451;-73
2022/08/17 05:42:46;;;;;;;;;16.75;16.75;;;;;20.56;75.68;99999.44;4975051;28;45486;-74
2022/08/17 05:45:14;;;;;;;;;16.00;15.75;;;;;20.57;76.06;100001.13;4975155;28;45655;-74
2022/08/17 05:47:40;;;;;;;;;16.25;16.25;;;;;20.62;75.36;100000.78;4974581;28;45502;-72
2022/08/17 05:50:08;;;;;;;;;23.50;19.75;;;;;20.68;75.30;99986.97;4975052;28;45558;-73
2022/08/17 05:52:45;;;;;;;;;22.25;21.25;;;;;20.81;75.41;99984.28;4983868;28;45451;-74
2022/08/17 05:55:27;;;;;;;;;19.00;18.00;;;;;21.02;74.32;99981.88;4993902;28;45684;-74
2022/08/17 05:58:07;;;;;;;;;21.25;18.75;;;;;21.77;72.62;99978.09;4980885;28;45501;-73
2022/08/17 06:01:02;;;;;;;;;19.00;17.50;;;;;22.62;70.18;99980.47;4975112;28;45411;-74
2022/08/17 06:03:47;;;;;;;;;18.00;17.25;;;;;23.12;67.22;99974.69;4990824;28;45427;-72
2022/08/17 06:06:44;;;;;;;;;23.75;20.50;;;;;23.31;65.09;99981.28;4995415;28;45504;-73
2022/08/17 06:09:38;;;;;;;;;22.75;20.00;;;;;23.40;64.91;99980.50;4974006;28;45419;-73
2022/08/17 06:12:04;;;;;;;;;26.50;22.50;;;;;23.46;64.81;99985.41;4974987;28;45300;-73
2022/08/17 06:14:35;;;;;;;;;22.25;17.25;;;;;23.55;65.48;99981.03;4974862;28;45555;-72
2022/08/17 06:17:10;;;;;;;;;21.00;19.25;;;;;23.64;63.81;99988.41;4974117;28;45517;-73
2022/08/17 06:19:41;;;;;;;;;21.75;21.00;;;;;23.62;63.97;99994.88;4973877;28;45461;-73
2022/08/17 06:22:10;;;;;;;;;23.75;19.75;;;;;23.35;63.66;100006.97;4979276;28;45442;-75
2022/08/17 06:24:44;;;;;;;;;23.25;22.25;;;;;23.17;65.20;100015.59;4994402;28;45395;-73
2022/08/17 06:27:21;;;;;;;;;22.75;22.75;;;;;22.96;65.13;100015.47;4988530;28;45442;-72
2022/08/17 06:30:07;;;;;;;;;26.25;25.00;;;;;22.85;66.25;100024.44;4973168;28;46426;-72
2022/08/17 06:32:37;;;;;;;;;22.50;19.00;;;;;22.67;66.58;100040.22;4982989;28;45414;-73
2022/08/17 06:35:06;;;;;;;;;26.50;22.00;;;;;22.51;67.01;100051.31;4977907;28;45518;-73
2022/08/17 06:37:56;;;;;;;;;26.75;22.25;;;;;22.37;67.48;100054.25;4974539;28;45461;-72
2022/08/17 06:40:47;;;;;;;;;23.00;20.75;;;;;22.25;67.75;100053.31;4973038;28;45990;-74
2022/08/17 06:44:04;;;;;;;;;23.25;22.00;;;;;22.14;68.28;100064.06;4974516;28;45424;-74
2022/08/17 06:46:40;;;;;;;;;21.00;18.25;;;;;21.98;68.51;100048.22;4952014;28;45552;-74
2022/08/17 06:49:20;;;;;;;;;23.75;19.25;;;;;21.89;69.03;100051.63;4973955;28;45597;-74
2022/08/17 06:51:56;;;;;;;;;22.00;20.75;;;;;21.76;69.41;100049.84;4976072;28;46003;-74
2022/08/17 06:54:49;;;;;;;;;22.00;20.25;;;;;21.70;69.71;100044.09;4976381;28;45474;-73
2022/08/17 06:57:23;;;;;;;;;22.00;21.50;;;;;21.64;70.05;100057.00;4974251;28;45443;-73
2022/08/17 07:00:06;;;;;;;;;19.50;18.50;;;;;21.60;70.45;100052.81;4973953;28;45594;-73
2022/08/17 07:02:59;;;;;;;;;20.50;17.25;;;;;21.54;70.20;100055.13;4990646;28;46116;-74
2022/08/17 07:05:32;;;;;;;;;16.25;16.00;;;;;21.40;70.72;100050.75;4976735;28;45340;-75
2022/08/17 07:08:37;;;;;;;;;19.50;17.50;;;;;21.32;70.96;100053.09;4973629;28;45423;-74
2022/08/17 07:11:16;;;;;;;;;19.75;18.00;;;;;21.22;71.55;100052.94;4952918;28;45813;-74
2022/08/17 07:14:06;;;;;;;;;20.00;16.50;;;;;21.19;71.92;100066.59;4972552;28;45619;-74
2022/08/17 07:16:38;;;;;;;;;21.75;17.75;;;;;21.18;72.22;100065.75;4967379;28;45376;-76
2022/08/17 07:19:06;;;;;;;;;20.50;18.00;;;;;21.16;72.30;100078.41;4982353;28;45538;-76
2022/08/17 07:21:58;;;;;;;;;21.00;19.75;;;;;21.15;72.63;100084.78;4976938;28;45693;-76
2022/08/17 07:24:46;;;;;;;;;23.25;21.50;;;;;21.10;72.53;100095.84;4969518;28;46114;-77
2022/08/17 07:27:22;;;;;;;;;24.00;21.25;;;;;21.03;72.09;100096.38;4974052;28;45292;-74
2022/08/17 07:29:56;;;;;;;;;20.25;19.00;;;;;20.92;72.15;100111.44;4972821;28;45358;-75
2022/08/17 07:32:26;;;;;;;;;23.75;19.75;;;;;20.79;73.25;100120.47;4973078;28;45456;-74
2022/08/17 07:35:09;;;;;;;;;17.25;17.25;;;;;20.74;73.70;100116.28;4976760;28;46206;-74
2022/08/17 07:37:53;;;;;;;;;23.25;20.00;;;;;20.66;73.77;100126.69;4978879;28;45274;-76
2022/08/17 07:40:35;;;;;;;;;22.50;22.50;;;;;20.69;74.56;100133.66;4976694;28;45619;-75
2022/08/17 07:43:29;;;;;;;;;20.00;19.00;;;;;20.69;74.14;100139.88;4972274;28;45320;-75
2022/08/17 07:48:51;;;;;;;;;17.50;14.25;;;;;20.65;74.59;100138.41;4963998;28;46052;-76
2022/08/17 07:51:25;;;;;;;;;19.00;19.00;;;;;20.62;74.27;100135.00;4962067;28;45551;-74
2022/08/17 07:53:53;;;;;;;;;21.50;18.75;;;;;20.55;74.80;100134.59;4967232;28;46331;-75
2022/08/17 07:56:43;;;;;;;;;17.50;17.00;;;;;20.51;74.87;100142.00;4953317;28;46412;-74
2022/08/17 07:59:17;;;;;;;;;21.00;20.25;;;;;20.48;75.47;100141.34;4955181;28;45549;-74
2022/08/17 08:02:02;;;;;;;;;17.50;17.00;;;;;20.48;75.13;100144.91;4955144;28;45537;-75
2022/08/17 08:04:42;;;;;;;;;16.75;15.75;;;;;20.48;75.69;100149.38;4971384;28;45555;-75
2022/08/17 08:07:17;;;;;;;;;14.50;14.00;;;;;20.47;75.36;100150.38;4954759;28;45421;-74
2022/08/17 08:10:06;;;;;;;;;17.75;14.00;;;;;20.39;75.25;100143.69;4954609;28;45537;-75
2022/08/17 08:12:39;;;;;;;;;15.75;15.75;;;;;20.42;75.88;100156.91;4950045;28;45510;-75
2022/08/17 08:15:19;;;;;;;;;19.25;19.00;;;;;20.44;75.78;100169.34;4959166;28;45718;-76
2022/08/17 08:17:58;;;;;;;;;16.25;16.00;;;;;20.46;75.80;100170.13;4951512;28;47137;-73
2022/08/17 08:20:52;;;;;;;;;18.00;18.00;;;;;20.41;75.92;100171.28;4963914;28;45587;-75
2022/08/17 08:23:31;;;;;;;;;17.25;17.25;;;;;20.50;75.85;100171.63;4958568;28;45493;-76
2022/08/17 08:26:09;;;;;;;;;23.25;18.75;;;;;20.55;75.19;100177.53;4971834;28;45832;-75
2022/08/17 08:28:45;;;;;;;;;16.00;14.75;;;;;20.48;75.26;100168.19;4975584;28;45428;-77
2022/08/17 08:31:37;;;;;;;;;17.00;15.50;;;;;20.51;75.13;100170.66;4974828;28;45446;-74
2022/08/17 08:34:11;;;;;;;;;20.25;17.25;;;;;20.52;75.01;100173.22;4953391;28;45592;-74
2022/08/17 08:36:54;;;;;;;;;21.50;17.50;;;;;20.59;75.33;100162.94;4955619;28;45792;-76
2022/08/17 08:39:29;;;;;;;;;21.25;17.25;;;;;20.67;74.63;100159.78;4952464;28;45502;-75
2022/08/17 08:42:06;;;;;;;;;23.25;21.75;;;;;20.75;74.17;100160.94;4951915;28;45668;-75
2022/08/17 08:44:43;;;;;;;;;9.50;9.25;;;;;20.71;73.62;100166.63;4952543;28;45516;-76
2022/08/17 08:47:33;;;;;;;;;16.75;16.25;;;;;20.74;73.42;100163.72;4951056;28;45486;-76
2022/08/17 08:50:10;;;;;;;;;19.25;17.00;;;;;20.76;73.05;100176.09;4934702;28;45540;-75
2022/08/17 08:52:46;;;;;;;;;18.50;16.50;;;;;20.85;72.72;100177.28;4950585;28;45697;-76
2022/08/17 08:55:35;;;;;;;;;22.50;19.50;;;;;20.92;72.46;100165.16;4951875;28;45511;-74
2022/08/17 08:58:13;;;;;;;;;19.00;17.75;;;;;20.99;72.00;100170.09;4950727;28;45606;-74
2022/08/17 09:00:46;;;;;;;;;20.25;17.25;;;;;21.00;72.12;100174.50;4948145;28;45946;-74
2022/08/17 09:03:48;;;;;;;;;15.50;14.00;;;;;20.91;72.25;100176.00;4951739;28;45461;-74
2022/08/17 09:06:45;;;;;;;;;19.25;19.25;;;;;20.96;73.27;100173.84;4935544;28;45529;-74
2022/08/17 09:09:31;;;;;;;;;16.50;15.50;;;;;21.01;73.22;100163.63;4950034;28;45423;-74
2022/08/17 09:12:30;;;;;;;;;23.75;17.50;;;;;20.97;72.46;100172.91;4966704;28;46282;-74
2022/08/17 09:15:00;;;;;;;;;19.00;17.00;;;;;20.99;72.90;100159.38;4968598;28;45489;-74
2022/08/17 09:17:42;;;;;;;;;19.50;19.50;;;;;21.01;73.05;100174.38;4973942;28;45396;-74
2022/08/17 09:20:24;;;;;;;;;28.00;19.50;;;;;21.03;73.39;100169.78;4972287;28;45518;-75
2022/08/17 09:22:58;;;;;;;;;19.25;18.00;;;;;21.04;72.77;100171.47;4994655;28;45657;-75
2022/08/17 09:25:30;;;;;;;;;21.50;19.75;;;;;21.05;72.34;100173.22;4978782;28;45396;-74
2022/08/17 09:28:03;;;;;;;;;24.25;21.00;;;;;21.11;72.65;100161.19;4973558;28;45401;-74
2022/08/17 09:30:42;;;;;;;;;21.50;17.75;;;;;21.06;72.38;100150.75;4970814;28;45587;-75
2022/08/17 09:33:10;;;;;;;;;22.00;19.25;;;;;21.14;72.13;100152.06;4976869;28;45633;-75
2022/08/17 09:35:42;;;;;;;;;17.75;16.00;;;;;21.17;72.28;100151.84;4976534;28;45418;-75
2022/08/17 09:38:42;;;;;;;;;23.00;21.75;;;;;21.23;71.07;100156.78;4974580;28;45395;-76
2022/08/17 09:41:10;;;;;;;;;19.25;18.50;;;;;21.29;70.99;100159.00;4972431;28;45527;-76
2022/08/17 09:43:45;;;;;;;;;22.25;18.25;;;;;21.37;72.21;100156.63;4973130;28;45693;-75
2022/08/17 09:46:31;;;;;;;;;21.00;17.00;;;;;21.39;70.97;100167.25;4974236;28;45479;-75
2022/08/17 09:49:29;;;;;;;;;17.75;17.75;;;;;21.44;71.26;100190.16;4973524;28;45531;-76
2022/08/17 09:51:59;;;;;;;;;20.25;19.75;;;;;21.45;71.15;100202.66;4994701;28;45498;-76
2022/08/17 09:54:30;;;;;;;;;24.25;23.25;;;;;21.46;71.22;100195.44;4972839;28;46257;-75
2022/08/17 09:57:34;;;;;;;;;22.25;19.50;;;;;21.41;70.53;100189.53;4972883;28;45537;-77
2022/08/17 10:00:23;;;;;;;;;24.00;19.75;;;;;21.38;70.53;100189.72;4894352;28;45419;-74
2022/08/17 10:03:15;;;;;;;;;26.00;24.00;;;;;21.38;70.83;100214.78;4897650;29;45415;-75
2022/08/17 10:06:06;;;;;;;;;24.25;18.75;;;;;21.30;71.12;100209.97;4894105;29;45672;-75
2022/08/17 10:08:56;;;;;;;;;22.75;20.75;;;;;21.27;71.64;100212.00;4891681;29;45521;-74
2022/08/17 10:14:35;;;;;;;;;15.00;12.75;;;;;21.37;71.81;100204.16;4889347;29;45501;-74
2022/08/17 10:17:13;;;;;;;;;26.25;21.00;;;;;21.41;71.19;100206.50;4893440;29;46015;-73
2022/08/17 10:20:07;;;;;;;;;23.75;20.00;;;;;21.47;71.02;100197.16;4894045;28;45592;-74
2022/08/17 10:26:13;;;;;;;;;27.25;26.25;;;;;21.72;71.10;100206.16;4888242;29;45618;-74
2022/08/17 10:28:44;;;;;;;;;19.25;19.25;;;;;21.75;70.28;100217.56;4889319;29;46112;-75
2022/08/17 10:31:22;;;;;;;;;22.00;21.00;;;;;21.75;70.46;100209.47;4894124;28;45528;-75
2022/08/17 10:33:59;;;;;;;;;22.75;22.75;;;;;21.75;69.69;100212.19;4896482;29;45386;-74
2022/08/17 10:36:44;;;;;;;;;27.75;22.25;;;;;21.76;70.21;100195.06;4955371;28;45384;-75
2022/08/17 10:39:18;;;;;;;;;18.00;16.25;;;;;21.76;69.87;100203.16;4971559;28;45459;-75
2022/08/17 10:41:49;;;;;;;;;24.00;23.50;;;;;21.76;69.99;100192.38;4971444;28;45496;-75
2022/08/17 10:44:23;;;;;;;;;22.75;22.25;;;;;21.74;70.15;100205.09;4972605;28;45572;-73
2022/08/17 10:47:07;;;;;;;;;22.50;22.50;;;;;21.79;70.12;100205.63;4974046;28;45597;-74
2022/08/17 10:49:38;;;;;;;;;29.00;25.00;;;;;21.77;69.49;100207.56;4972072;28;46047;-74
2022/08/17 10:52:29;;;;;;;;;22.25;19.50;;;;;21.77;69.87;100204.00;4970059;28;45620;-75
2022/08/17 10:54:57;;;;;;;;;23.75;23.00;;;;;21.77;70.08;100214.75;4971251;28;45523;-74
2022/08/17 10:57:22;;;;;;;;;24.50;24.00;;;;;21.78;69.45;100222.72;4969835;28;45744;-74
2022/08/17 10:59:50;;;;;;;;;30.75;26.00;;;;;21.81;69.99;100211.72;4974960;28;45441;-74
2022/08/17 11:02:30;;;;;;;;;29.50;26.75;;;;;21.83;69.88;100203.53;4976665;28;45537;-75
2022/08/17 11:05:17;;;;;;;;;23.25;23.25;;;;;21.95;69.16;100205.34;4972811;28;45366;-76
2022/08/17 11:08:14;;;;;;;;;29.00;26.75;;;;;22.12;69.79;100197.84;4973564;28;45591;-74
2022/08/17 11:10:54;;;;;;;;;29.25;28.00;;;;;22.34;68.18;100195.31;4972623;28;46210;-75
2022/08/17 11:13:20;;;;;;;;;27.75;27.75;;;;;22.49;67.51;100189.75;4974077;28;45595;-74
2022/08/17 11:16:23;;;;;;;;;33.00;30.25;;;;;22.53;67.33;100185.81;4972255;28;45652;-76
2022/08/17 11:19:09;;;;;;;;;31.25;30.00;;;;;22.67;66.39;100187.50;4978575;28;45608;-76
2022/08/17 11:21:53;;;;;;;;;28.25;25.25;;;;;22.96;65.83;100177.13;4974400;28;45546;-75
2022/08/17 11:24:34;;;;;;;;;26.50;23.50;;;;;23.29;65.04;100180.00;4974609;28;45444;-75
2022/08/17 11:27:06;;;;;;;;;28.25;27.00;;;;;23.64;64.63;100187.09;4975199;28;45380;-75
2022/08/17 11:29:58;;;;;;;;;23.50;18.25;;;;;24.48;63.39;100204.44;4971963;28;45432;-75
2022/08/17 11:32:29;;;;;;;;;26.00;23.25;;;;;25.17;58.94;100200.41;4967965;28;45647;-74
2022/08/17 11:35:19;;;;;;;;;24.00;23.50;;;;;26.04;57.52;100190.94;4974622;28;45628;-79
2022/08/17 11:38:06;;;;;;;;;23.25;22.75;;;;;26.76;55.50;100194.25;4977269;28;45529;-77
2022/08/17 11:41:09;;;;;;;;;21.50;20.25;;;;;27.69;54.85;100196.25;4974577;28;45516;-82
2022/08/17 11:43:54;;;;;;;;;21.50;21.50;;;;;28.05;52.25;100190.94;4987444;28;47366;-76
2022/08/17 11:52:48;;;;;;;;;18.75;18.75;;;;;28.68;49.74;100176.44;4972186;28;45429;-76
2022/08/17 11:55:33;;;;;;;;;21.25;18.75;;;;;28.71;49.60;100191.56;4977619;28;45626;-75
2022/08/17 11:58:28;;;;;;;;;23.50;23.50;;;;;28.61;48.79;100194.38;4976746;28;45501;-75
2022/08/17 12:00:56;;;;;;;;;17.25;17.25;;;;;28.15;49.61;100197.16;4968232;28;45479;-75
2022/08/17 12:03:30;;;;;;;;;21.50;20.50;;;;;27.67;50.89;100203.69;4976877;28;45772;-72
2022/08/17 12:06:30;;;;;;;;;22.50;21.25;;;;;27.36;51.31;100198.56;4971341;28;45463;-74
2022/08/17 12:09:15;;;;;;;;;28.75;25.75;;;;;26.91;52.09;100213.63;4977324;28;45538;-74
2022/08/17 12:11:41;;;;;;;;;29.50;28.50;;;;;26.79;53.94;100213.94;4976594;28;45560;-74